createdAt,value
2023-04-07T00:00:00.497Z,0.6
2023-04-07T00:05:00.576Z,2.1
2023-04-07T00:10:00.380Z,2.1
2023-04-07T00:15:00.453Z,3.2
2023-04-07T00:20:00.527Z,0.9
2023-04-07T00:25:00.450Z,3.1
2023-04-07T00:30:00.443Z,2.0
2023-04-07T00:35:00.413Z,2.3
2023-04-07T00:40:00.447Z,2.4
2023-04-07T00:45:00.443Z,1.8
2023-04-07T00:50:00.492Z,0.6
2023-04-07T00:55:00.453Z,0.9
2023-04-07T01:00:00.406Z,0.3
2023-04-07T01:05:00.570Z,0.1
2023-04-07T01:10:00.426Z,0.1
2023-04-07T01:15:00.456Z,1.3
2023-04-07T01:20:00.446Z,0.1
2023-04-07T01:25:00.447Z,0.0
2023-04-07T01:30:00.413Z,0.0
2023-04-07T01:35:00.447Z,0.2
2023-04-07T01:40:00.432Z,0.6
2023-04-07T01:45:00.565Z,1.5
2023-04-07T01:50:02.417Z,1.6
2023-04-07T01:55:00.420Z,1.5
2023-04-07T02:00:00.449Z,2.7
2023-04-07T02:05:00.410Z,2.0
2023-04-07T02:10:00.445Z,1.2
2023-04-07T02:15:00.558Z,1.4
2023-04-07T02:20:00.440Z,1.2
2023-04-07T02:25:00.466Z,1.5
2023-04-07T02:30:00.413Z,2.5
2023-04-07T02:35:00.467Z,1.7
2023-04-07T02:40:00.417Z,2.6
2023-04-07T02:50:00.450Z,1.7
2023-04-07T02:55:00.402Z,2.5
2023-04-07T03:00:00.421Z,3.8
2023-04-07T03:05:00.441Z,3.5
2023-04-07T03:10:00.416Z,3.8
2023-04-07T03:15:00.454Z,3.3
2023-04-07T03:20:00.404Z,3.8
2023-04-07T03:25:00.446Z,2.6
2023-04-07T03:30:00.432Z,3.6
2023-04-07T03:35:00.423Z,2.7
2023-04-07T03:40:00.440Z,3.2
2023-04-07T03:45:00.390Z,3.7
2023-04-07T03:50:00.448Z,3.0
2023-04-07T03:55:00.453Z,2.3
2023-04-07T04:00:00.439Z,3.3
2023-04-07T04:05:00.437Z,3.2
2023-04-07T04:10:00.429Z,3.3
2023-04-07T04:15:00.655Z,4.4
2023-04-07T04:20:00.430Z,3.4
2023-04-07T04:25:00.451Z,3.5
2023-04-07T04:30:00.614Z,4.2
2023-04-07T04:35:00.424Z,3.6
2023-04-07T04:40:00.437Z,2.6
2023-04-07T04:45:00.617Z,2.7
2023-04-07T04:50:00.460Z,2.7
2023-04-07T04:55:00.384Z,2.9
2023-04-07T05:00:00.650Z,4.6
2023-04-07T05:05:00.677Z,2.5
2023-04-07T05:10:00.436Z,3.8
2023-04-07T05:15:00.634Z,4.1
2023-04-07T05:20:00.424Z,3.1
2023-04-07T05:25:00.566Z,3.9
2023-04-07T05:30:00.626Z,4.6
2023-04-07T05:35:00.421Z,3.9
2023-04-07T05:40:00.441Z,2.8
2023-04-07T05:45:00.648Z,2.9
2023-04-07T05:50:00.502Z,4.8
2023-04-07T05:55:00.450Z,5.1
2023-04-07T06:00:00.432Z,5.1
2023-04-07T06:05:00.579Z,4.6
2023-04-07T06:10:00.441Z,3.5
2023-04-07T06:15:00.532Z,5.7
2023-04-07T06:20:00.514Z,5.1
2023-04-07T06:25:00.505Z,6.3
2023-04-07T06:30:00.428Z,5.1
2023-04-07T06:35:00.512Z,5.2
2023-04-07T06:40:00.501Z,2.6
2023-04-07T06:45:00.428Z,4.0
2023-04-07T06:50:00.440Z,6.4
2023-04-07T06:55:00.488Z,6.8
2023-04-07T07:00:00.464Z,6.0
2023-04-07T07:05:00.486Z,8.7
2023-04-07T07:10:00.541Z,6.4
2023-04-07T07:15:00.468Z,10.3
2023-04-07T07:20:00.501Z,8.3
2023-04-07T07:25:00.661Z,8.8
2023-04-07T07:30:00.569Z,7.5
2023-04-07T07:35:00.425Z,7.1
2023-04-07T07:40:00.547Z,4.7
2023-04-07T07:45:00.489Z,6.8
2023-04-07T07:50:00.505Z,6.5
2023-04-07T07:55:00.485Z,6.4
2023-04-07T08:00:00.461Z,5.7
2023-04-07T08:05:00.840Z,6.4
2023-04-07T08:10:00.448Z,5.4
2023-04-07T08:15:00.544Z,9.0
2023-04-07T08:20:00.500Z,5.8
2023-04-07T08:25:00.599Z,8.5
2023-04-07T08:30:00.525Z,6.2
2023-04-07T08:35:00.466Z,7.1
2023-04-07T08:40:00.589Z,9.8
2023-04-07T08:45:01.334Z,6.9
2023-04-07T08:50:00.655Z,5.3
2023-04-07T08:55:00.426Z,7.5
2023-04-07T09:00:00.491Z,9.2
2023-04-07T09:05:00.478Z,9.1
2023-04-07T09:10:00.442Z,10.1
2023-04-07T09:15:00.530Z,6.6
2023-04-07T09:20:00.512Z,10.4
2023-04-07T09:25:00.608Z,9.6
2023-04-07T09:30:00.503Z,7.4
2023-04-07T09:35:00.456Z,7.7
2023-04-07T09:40:00.532Z,6.9
2023-04-07T09:45:00.457Z,7.6
2023-04-07T09:50:00.409Z,10.0
2023-04-07T09:55:00.412Z,8.7
2023-04-07T10:00:00.444Z,6.7
2023-04-07T10:05:00.455Z,9.1
2023-04-07T10:10:00.578Z,8.6
2023-04-07T10:15:00.439Z,8.4
2023-04-07T10:20:00.610Z,9.3
2023-04-07T10:25:00.447Z,10.8
2023-04-07T10:30:00.428Z,6.7
2023-04-07T10:35:00.429Z,9.2
2023-04-07T10:40:00.495Z,9.4
2023-04-07T10:45:00.460Z,11.7
2023-04-07T10:50:00.421Z,7.3
2023-04-07T10:55:00.537Z,10.0
2023-04-07T11:00:00.540Z,7.8
2023-04-07T11:05:00.450Z,9.0
2023-04-07T11:10:00.441Z,10.4
2023-04-07T11:15:00.435Z,8.2
2023-04-07T11:20:00.439Z,6.2
2023-04-07T11:25:00.606Z,7.6
2023-04-07T11:40:00.593Z,6.7
2023-04-07T11:45:00.359Z,10.0
2023-04-07T11:50:00.421Z,8.5
2023-04-07T11:55:00.432Z,5.2
2023-04-07T12:00:00.427Z,7.0
2023-04-07T12:05:00.474Z,7.5
2023-04-07T12:10:00.426Z,9.7
2023-04-07T12:15:00.420Z,7.6
2023-04-07T12:20:00.461Z,6.1
2023-04-07T12:25:00.462Z,6.8
2023-04-07T12:30:00.402Z,8.2
2023-04-07T12:35:00.379Z,8.3
2023-04-07T12:40:00.746Z,7.0
2023-04-07T12:45:00.410Z,6.5
2023-04-07T12:50:00.399Z,8.7
2023-04-07T12:55:00.377Z,8.6
2023-04-07T13:00:00.376Z,6.8
2023-04-07T13:05:00.382Z,6.8
2023-04-07T13:10:00.528Z,7.4
2023-04-07T13:15:00.954Z,5.8
2023-04-07T13:20:00.409Z,6.8
2023-04-07T13:25:02.097Z,9.2
2023-04-07T13:30:00.602Z,7.2
2023-04-07T13:35:00.481Z,9.3
2023-04-07T13:40:00.460Z,9.5
2023-04-07T13:45:00.439Z,6.1
2023-04-07T13:50:00.386Z,8.2
2023-04-07T13:55:00.326Z,5.0
2023-04-07T14:00:00.445Z,4.1
2023-04-07T14:05:00.388Z,3.7
2023-04-07T14:10:00.381Z,8.1
2023-04-07T14:15:00.470Z,8.7
2023-04-07T14:20:00.430Z,6.8
2023-04-07T14:25:00.409Z,6.2
2023-04-07T14:30:00.426Z,4.3
2023-04-07T14:35:00.367Z,5.7
2023-04-07T14:40:03.534Z,7.2
2023-04-07T14:45:00.367Z,9.1
2023-04-07T14:50:00.402Z,6.0
2023-04-07T14:55:00.697Z,4.8
2023-04-07T15:00:02.033Z,4.9
2023-04-07T15:05:03.809Z,7.2
2023-04-07T15:10:00.400Z,4.8
2023-04-07T15:15:03.198Z,4.7
2023-04-07T15:20:00.429Z,5.4
2023-04-07T15:25:00.409Z,7.0
2023-04-07T15:30:00.572Z,6.3
2023-04-07T15:35:00.411Z,5.1
2023-04-07T15:40:00.411Z,4.8
2023-04-07T15:45:00.418Z,6.4
2023-04-07T15:50:00.400Z,7.5
2023-04-07T15:55:00.439Z,5.3
2023-04-07T16:00:00.433Z,5.0
2023-04-07T16:05:00.388Z,4.4
2023-04-07T16:10:00.430Z,2.7
2023-04-07T16:15:00.462Z,5.8
2023-04-07T16:20:00.470Z,5.5
2023-04-07T16:25:00.429Z,4.2
2023-04-07T16:30:00.481Z,3.5
2023-04-07T16:35:00.377Z,5.2
2023-04-07T16:40:00.427Z,3.2
2023-04-07T16:45:00.698Z,4.4
2023-04-07T16:50:00.551Z,4.9
2023-04-07T16:55:00.470Z,3.2
2023-04-07T17:00:00.680Z,3.1
2023-04-07T17:05:00.461Z,3.3
2023-04-07T17:10:00.547Z,2.5
2023-04-07T17:15:00.537Z,3.8
2023-04-07T17:20:00.623Z,3.3
2023-04-07T17:25:00.578Z,3.3
2023-04-07T17:30:00.595Z,4.0
2023-04-07T17:35:00.390Z,3.2
2023-04-07T17:40:00.363Z,2.3
2023-04-07T17:45:00.347Z,2.2
2023-04-07T17:50:00.366Z,4.4
2023-04-07T17:55:00.340Z,5.6
2023-04-07T18:00:00.372Z,4.4
2023-04-07T18:05:00.597Z,3.8
2023-04-07T18:10:00.376Z,5.4
2023-04-07T18:15:00.333Z,4.3
2023-04-07T18:20:00.358Z,5.1
2023-04-07T18:25:00.337Z,4.9
2023-04-07T18:30:00.395Z,2.2
2023-04-07T18:35:00.367Z,3.4
2023-04-07T18:40:00.632Z,5.3
2023-04-07T18:45:00.407Z,5.7
2023-04-07T18:50:00.480Z,2.9
2023-04-07T18:55:00.414Z,4.3
2023-04-07T19:00:00.417Z,6.9
2023-04-07T19:05:00.335Z,7.5
2023-04-07T19:10:00.337Z,5.0
2023-04-07T19:15:00.413Z,5.1
2023-04-07T19:20:00.445Z,4.0
2023-04-07T19:25:00.364Z,4.9
2023-04-07T19:30:00.568Z,4.0
2023-04-07T19:35:00.345Z,2.9
2023-04-07T19:40:03.799Z,4.1
2023-04-07T19:45:00.354Z,5.5
2023-04-07T19:50:00.358Z,4.3
2023-04-07T19:55:00.365Z,4.6
2023-04-07T20:00:00.359Z,2.9
2023-04-07T20:05:00.326Z,5.2
2023-04-07T20:10:00.356Z,3.6
2023-04-07T20:15:00.359Z,1.9
2023-04-07T20:20:00.337Z,4.1
2023-04-07T20:25:00.435Z,2.9
2023-04-07T20:30:00.349Z,4.6
2023-04-07T20:35:00.442Z,2.9
2023-04-07T20:40:00.347Z,2.7
2023-04-07T20:45:00.372Z,3.2
2023-04-07T20:50:00.365Z,1.3
2023-04-07T20:55:00.395Z,4.8
2023-04-07T21:00:00.327Z,1.5
2023-04-07T21:05:00.309Z,2.5
2023-04-07T21:10:00.355Z,3.2
2023-04-07T21:15:00.352Z,6.1
2023-04-07T21:20:00.398Z,2.6
2023-04-07T21:25:00.367Z,3.8
2023-04-07T21:30:00.364Z,4.2
2023-04-07T21:35:00.349Z,3.8
2023-04-07T21:40:00.904Z,5.2
2023-04-07T21:45:00.381Z,4.4
2023-04-07T21:50:00.375Z,5.3
2023-04-07T21:55:00.354Z,6.4
2023-04-07T22:00:00.530Z,6.9
2023-04-07T22:05:00.352Z,5.7
2023-04-07T22:10:00.346Z,3.2
2023-04-07T22:15:00.328Z,4.2
2023-04-07T22:20:00.346Z,4.9
2023-04-07T22:25:00.351Z,3.3
2023-04-07T22:30:00.540Z,4.0
2023-04-07T22:35:00.327Z,6.7
2023-04-07T22:40:00.387Z,5.0
2023-04-07T22:45:00.308Z,5.6
2023-04-07T22:50:00.346Z,4.6
2023-04-07T22:55:00.370Z,5.3
2023-04-07T23:00:00.334Z,4.7
2023-04-07T23:05:00.373Z,6.2
2023-04-07T23:10:00.348Z,5.1
2023-04-07T23:15:00.365Z,5.0
2023-04-07T23:20:00.356Z,4.8
2023-04-07T23:25:00.399Z,4.2
2023-04-07T23:30:00.366Z,4.1
2023-04-07T23:35:00.286Z,4.9
2023-04-07T23:40:00.332Z,1.4
2023-04-07T23:45:00.328Z,4.5
2023-04-07T23:50:00.432Z,3.1
2023-04-07T23:55:00.354Z,1.6
